createdAt,value
2018-06-13T00:00:12.680Z,41.20
2018-06-13T00:02:41.737Z,41.60
2018-06-13T00:05:11.201Z,41.30
2018-06-13T00:07:40.294Z,41.60
2018-06-13T00:10:09.349Z,41.50
2018-06-13T00:12:38.397Z,41.00
2018-06-13T00:15:07.734Z,41.20
2018-06-13T00:17:36.780Z,40.70
2018-06-13T00:20:05.817Z,41.20
2018-06-13T00:22:34.893Z,40.90
2018-06-13T00:25:04.007Z,41.20
2018-06-13T00:27:33.290Z,41.60
2018-06-13T00:30:02.553Z,42.20
2018-06-13T00:32:31.600Z,41.90
2018-06-13T00:35:00.709Z,41.00
2018-06-13T00:37:29.791Z,40.90
2018-06-13T00:39:58.826Z,40.90
2018-06-13T00:42:28.421Z,41.30
2018-06-13T00:44:57.720Z,40.90
2018-06-13T00:47:27.010Z,40.30
2018-06-13T00:49:56.229Z,40.20
2018-06-13T00:52:25.258Z,40.70
2018-06-13T00:54:54.550Z,41.60
2018-06-13T00:57:23.658Z,40.70
2018-06-13T00:59:52.933Z,41.90
2018-06-13T01:02:22.184Z,41.80
2018-06-13T01:04:51.486Z,42.80
2018-06-13T01:07:20.572Z,40.90
2018-06-13T01:09:50.999Z,43.30
2018-06-13T01:12:20.028Z,42.50
2018-06-13T01:14:49.053Z,43.60
2018-06-13T01:17:18.696Z,42.80
2018-06-13T01:19:47.824Z,43.00
2018-06-13T01:22:16.912Z,44.10
2018-06-13T01:24:46.244Z,41.60
2018-06-13T01:27:15.544Z,41.90
2018-06-13T01:29:44.802Z,42.40
2018-06-13T01:32:13.868Z,43.40
2018-06-13T01:34:43.117Z,43.60
2018-06-13T01:37:12.150Z,43.70
2018-06-13T01:39:41.265Z,45.20
2018-06-13T01:42:10.538Z,45.80
2018-06-13T01:44:39.600Z,45.20
2018-06-13T01:47:09.064Z,44.70
2018-06-13T01:49:38.108Z,44.90
2018-06-13T01:52:07.674Z,46.10
2018-06-13T01:54:36.741Z,44.10
2018-06-13T01:57:05.825Z,44.70
2018-06-13T01:59:35.188Z,45.50
2018-06-13T02:02:04.293Z,47.30
2018-06-13T02:04:33.328Z,46.50
2018-06-13T02:07:02.357Z,44.70
2018-06-13T02:09:31.645Z,44.30
2018-06-13T02:12:00.923Z,43.70
2018-06-13T02:14:29.960Z,45.50
2018-06-13T02:16:59.001Z,44.10
2018-06-13T02:19:28.036Z,46.40
2018-06-13T02:21:57.090Z,45.00
2018-06-13T02:24:26.184Z,46.80
2018-06-13T02:26:55.449Z,45.00
2018-06-13T02:29:24.493Z,45.50
2018-06-13T02:31:53.807Z,46.20
2018-06-13T02:34:23.082Z,44.70
2018-06-13T02:36:52.105Z,44.90
2018-06-13T02:39:21.172Z,44.90
2018-06-13T02:41:50.200Z,45.30
2018-06-13T02:44:19.230Z,45.00
2018-06-13T02:46:48.310Z,45.00
2018-06-13T02:49:17.353Z,45.30
2018-06-13T02:51:46.608Z,45.50
2018-06-13T02:54:15.893Z,45.80
2018-06-13T02:56:44.921Z,47.10
2018-06-13T02:59:14.457Z,47.50
2018-06-13T03:01:43.547Z,47.80
2018-06-13T03:04:13.110Z,48.60
2018-06-13T03:06:42.137Z,49.20
2018-06-13T03:09:11.436Z,48.70
2018-06-13T03:11:40.474Z,48.40
2018-06-13T03:14:09.517Z,48.40
2018-06-13T03:16:38.817Z,48.10
2018-06-13T03:19:08.081Z,47.80
2018-06-13T03:21:37.345Z,48.00
2018-06-13T03:24:06.456Z,48.10
2018-06-13T03:26:35.497Z,47.70
2018-06-13T03:29:04.808Z,47.70
2018-06-13T03:31:33.877Z,48.00
2018-06-13T03:34:02.996Z,49.50
2018-06-13T03:36:32.218Z,50.40
2018-06-13T03:39:01.665Z,51.40
2018-06-13T03:41:30.712Z,49.80
2018-06-13T03:43:59.757Z,49.50
2018-06-13T03:46:28.853Z,49.50
2018-06-13T03:48:58.526Z,48.60
2018-06-13T03:51:28.061Z,48.10
2018-06-13T03:53:57.144Z,47.50
2018-06-13T03:56:26.570Z,47.40
2018-06-13T03:58:55.724Z,46.80
2018-06-13T04:01:24.757Z,46.40
2018-06-13T04:03:54.030Z,47.00
2018-06-13T04:06:23.201Z,48.10
2018-06-13T04:08:52.241Z,48.70
2018-06-13T04:11:21.494Z,49.50
2018-06-13T04:13:50.627Z,48.90
2018-06-13T04:16:19.657Z,49.20
2018-06-13T04:18:48.730Z,49.00
2018-06-13T04:21:17.824Z,49.50
2018-06-13T04:23:46.851Z,50.20
2018-06-13T04:26:16.794Z,50.70
2018-06-13T04:28:46.228Z,50.50
2018-06-13T04:31:15.477Z,50.50
2018-06-13T04:33:44.701Z,49.50
2018-06-13T04:36:13.967Z,48.90
2018-06-13T04:38:43.048Z,48.00
2018-06-13T04:41:12.344Z,47.10
2018-06-13T04:43:41.387Z,46.70
2018-06-13T04:46:10.450Z,46.50
2018-06-13T04:48:39.563Z,46.10
2018-06-13T04:51:09.572Z,46.10
2018-06-13T04:53:38.642Z,45.20
2018-06-13T04:56:07.914Z,46.10
2018-06-13T04:58:36.957Z,45.50
2018-06-13T05:01:06.005Z,45.50
2018-06-13T05:03:35.236Z,45.30
2018-06-13T05:06:04.306Z,47.00
2018-06-13T05:08:33.526Z,46.70
2018-06-13T05:11:02.610Z,47.10
2018-06-13T05:13:31.882Z,47.50
2018-06-13T05:16:01.197Z,48.30
2018-06-13T05:18:30.716Z,47.10
2018-06-13T05:21:00.631Z,46.70
2018-06-13T05:23:29.917Z,46.50
2018-06-13T05:25:59.433Z,46.20
2018-06-13T05:28:29.912Z,46.20
2018-06-13T05:31:00.581Z,47.50
2018-06-13T05:33:29.788Z,47.80
2018-06-13T05:35:59.036Z,47.10
2018-06-13T05:38:28.484Z,47.10
2018-06-13T05:40:59.801Z,46.40
2018-06-13T05:43:31.484Z,45.80
2018-06-13T05:46:00.904Z,45.30
2018-06-13T05:48:30.172Z,46.80
2018-06-13T05:50:59.238Z,45.20
2018-06-13T05:53:28.608Z,44.90
2018-06-13T05:55:57.710Z,45.60
2018-06-13T05:58:27.010Z,45.50
2018-06-13T06:00:56.058Z,44.10
2018-06-13T06:03:28.114Z,44.70
2018-06-13T06:05:57.211Z,45.80
2018-06-13T06:08:26.247Z,44.60
2018-06-13T06:10:55.335Z,44.60
2018-06-13T06:13:24.381Z,44.70
2018-06-13T06:15:53.438Z,43.90
2018-06-13T06:18:22.797Z,43.30
2018-06-13T06:20:51.853Z,44.60
2018-06-13T06:23:21.173Z,46.40
2018-06-13T06:25:50.237Z,44.90
2018-06-13T06:28:19.594Z,45.60
2018-06-13T06:30:48.658Z,46.50
2018-06-13T06:33:17.757Z,45.80
2018-06-13T06:35:47.059Z,44.40
2018-06-13T06:38:16.139Z,44.10
2018-06-13T06:40:45.408Z,45.30
2018-06-13T06:43:14.497Z,44.70
2018-06-13T06:45:43.802Z,44.60
2018-06-13T06:48:13.041Z,42.80
2018-06-13T06:50:42.165Z,43.40
2018-06-13T06:53:11.469Z,45.20
2018-06-13T06:55:41.133Z,43.40
2018-06-13T06:58:10.212Z,42.80
2018-06-13T07:00:39.295Z,42.40
2018-06-13T07:03:08.383Z,42.80
2018-06-13T07:05:40.110Z,43.70
2018-06-13T07:08:11.190Z,45.50
2018-06-13T07:10:40.920Z,43.70
2018-06-13T07:13:10.791Z,40.70
2018-06-13T07:15:39.998Z,39.70
2018-06-13T07:18:09.174Z,40.20
2018-06-13T07:20:38.509Z,43.60
2018-06-13T07:23:08.221Z,43.10
2018-06-13T07:25:37.477Z,42.10
2018-06-13T07:28:06.550Z,41.60
2018-06-13T07:30:35.593Z,40.70
2018-06-13T07:33:04.733Z,43.70
2018-06-13T07:35:33.849Z,46.70
2018-06-13T07:38:02.895Z,44.70
2018-06-13T07:40:31.943Z,42.50
2018-06-13T07:43:01.590Z,40.00
2018-06-13T07:45:30.643Z,39.00
2018-06-13T07:47:59.697Z,37.50
2018-06-13T07:50:29.112Z,36.20
2018-06-13T07:52:58.164Z,35.00
2018-06-13T07:55:27.201Z,34.70
2018-06-13T07:57:56.363Z,34.80
2018-06-13T08:00:25.864Z,34.50
2018-06-13T08:02:54.917Z,34.20
2018-06-13T08:05:24.009Z,33.80
2018-06-13T08:07:53.309Z,33.50
2018-06-13T08:10:22.444Z,34.20
2018-06-13T08:12:51.530Z,34.70
2018-06-13T08:15:20.636Z,34.70
2018-06-13T08:17:49.723Z,34.50
2018-06-13T08:20:19.033Z,37.50
2018-06-13T08:22:48.364Z,40.70
2018-06-13T08:25:17.465Z,43.00
2018-06-13T08:27:49.650Z,44.60
2018-06-13T08:30:18.995Z,44.70
2018-06-13T08:32:48.041Z,43.30
2018-06-13T08:35:17.152Z,41.00
2018-06-13T08:37:46.196Z,39.60
2018-06-13T08:40:15.746Z,38.80
2018-06-13T08:42:45.485Z,36.90
2018-06-13T08:45:19.414Z,36.30
2018-06-13T08:47:52.267Z,35.70
2018-06-13T08:50:22.295Z,35.00
2018-06-13T08:52:54.010Z,34.80
2018-06-13T08:55:23.479Z,34.20
2018-06-13T08:57:55.411Z,33.70
2018-06-13T09:00:27.621Z,33.70
2018-06-13T09:02:58.808Z,33.70
2018-06-13T09:05:30.613Z,33.10
2018-06-13T09:07:59.833Z,33.50
2018-06-13T09:10:30.111Z,33.40
2018-06-13T09:12:59.421Z,32.90
2018-06-13T09:15:28.760Z,32.60
2018-06-13T09:17:57.833Z,32.60
2018-06-13T09:20:27.096Z,31.90
2018-06-13T09:22:56.401Z,33.70
2018-06-13T09:25:25.677Z,34.80
2018-06-13T09:27:54.736Z,34.50
2018-06-13T09:30:24.326Z,34.40
2018-06-13T09:32:53.623Z,33.80
2018-06-13T09:35:23.093Z,33.80
2018-06-13T09:37:53.024Z,33.70
2018-06-13T09:40:22.085Z,34.00
2018-06-13T09:42:51.363Z,33.50
2018-06-13T09:45:20.649Z,33.50
2018-06-13T09:47:49.699Z,34.10
2018-06-13T09:50:18.988Z,34.00
2018-06-13T09:52:48.295Z,34.10
2018-06-13T09:55:17.381Z,34.80
2018-06-13T09:57:46.653Z,34.70
2018-06-13T10:00:22.398Z,34.50
2018-06-13T10:02:51.707Z,34.40
2018-06-13T10:05:20.741Z,34.50
2018-06-13T10:07:50.417Z,33.20
2018-06-13T10:10:19.524Z,33.80
2018-06-13T10:12:48.803Z,34.50
2018-06-13T10:15:18.969Z,36.90
2018-06-13T10:17:48.027Z,36.30
2018-06-13T10:20:17.297Z,35.70
2018-06-13T10:22:47.560Z,36.30
2018-06-13T10:25:16.826Z,37.10
2018-06-13T10:27:45.869Z,36.50
2018-06-13T10:30:15.157Z,35.30
2018-06-13T10:32:44.222Z,35.10
2018-06-13T10:35:13.274Z,34.50
2018-06-13T10:37:42.561Z,34.40
2018-06-13T10:40:11.606Z,33.50
2018-06-13T10:42:41.225Z,33.40
2018-06-13T10:45:10.347Z,33.20
2018-06-13T10:47:39.373Z,33.10
2018-06-13T10:50:08.424Z,33.20
2018-06-13T10:52:37.741Z,33.20
2018-06-13T10:55:07.813Z,33.10
2018-06-13T10:57:36.895Z,33.10
2018-06-13T11:00:05.966Z,33.20
2018-06-13T11:02:35.374Z,33.50
2018-06-13T11:05:04.743Z,33.40
2018-06-13T11:07:34.489Z,33.40
2018-06-13T11:10:04.134Z,33.20
2018-06-13T11:12:33.241Z,33.50
2018-06-13T11:15:02.369Z,34.20
2018-06-13T11:17:31.553Z,34.20
2018-06-13T11:20:00.885Z,34.40
2018-06-13T11:22:29.941Z,34.80
2018-06-13T11:24:59.231Z,35.00
2018-06-13T11:27:28.332Z,35.40
2018-06-13T11:29:57.940Z,36.20
2018-06-13T11:32:27.613Z,36.60
2018-06-13T11:34:58.337Z,37.20
2018-06-13T11:37:28.343Z,37.60
2018-06-13T11:39:57.630Z,38.10
2018-06-13T11:42:26.898Z,38.70
2018-06-13T11:44:55.961Z,38.70
2018-06-13T11:47:25.276Z,38.80
2018-06-13T11:49:54.383Z,38.80
2018-06-13T11:52:23.717Z,38.20
2018-06-13T11:54:53.067Z,38.50
2018-06-13T11:57:22.357Z,38.70
2018-06-13T11:59:51.402Z,38.50
2018-06-13T12:02:20.466Z,38.50
2018-06-13T12:04:49.857Z,38.20
2018-06-13T12:07:18.912Z,37.90
2018-06-13T12:09:48.129Z,37.40
2018-06-13T12:12:17.478Z,37.80
2018-06-13T12:14:46.609Z,37.40
2018-06-13T12:17:15.910Z,37.90
2018-06-13T12:19:45.145Z,38.80
2018-06-13T12:22:14.209Z,38.70
2018-06-13T12:24:43.477Z,38.70
2018-06-13T12:27:12.542Z,39.40
2018-06-13T12:29:41.619Z,39.70
2018-06-13T12:32:10.695Z,40.00
2018-06-13T12:34:39.821Z,40.60
2018-06-13T12:37:08.938Z,40.70
2018-06-13T12:39:38.010Z,40.60
2018-06-13T12:42:07.501Z,40.60
2018-06-13T12:44:37.674Z,40.50
2018-06-13T12:47:06.733Z,40.50
2018-06-13T12:49:36.231Z,40.70
2018-06-13T12:52:05.315Z,41.00
2018-06-13T12:54:34.396Z,40.60
2018-06-13T12:57:03.481Z,40.60
2018-06-13T12:59:32.560Z,41.20
2018-06-13T13:02:01.605Z,42.40
2018-06-13T13:04:30.935Z,42.40
2018-06-13T13:07:00.018Z,42.40
2018-06-13T13:09:29.440Z,42.20
2018-06-13T13:11:58.741Z,42.10
2018-06-13T13:14:27.796Z,41.60
2018-06-13T13:16:57.111Z,41.00
2018-06-13T13:19:26.409Z,41.50
2018-06-13T13:21:55.470Z,42.10
2018-06-13T13:24:24.539Z,42.40
2018-06-13T13:26:53.923Z,42.70
2018-06-13T13:29:22.969Z,42.10
2018-06-13T13:31:52.078Z,42.50
2018-06-13T13:34:21.337Z,42.20
2018-06-13T13:36:50.386Z,42.10
2018-06-13T13:39:20.276Z,42.10
2018-06-13T13:41:49.569Z,41.80
2018-06-13T13:44:18.817Z,41.60
2018-06-13T13:46:47.878Z,41.30
2018-06-13T13:49:16.981Z,41.20
2018-06-13T13:51:46.301Z,41.00
2018-06-13T13:54:17.781Z,41.00
2018-06-13T13:56:46.877Z,41.00
2018-06-13T13:59:16.333Z,41.00
2018-06-13T14:01:45.408Z,41.00
2018-06-13T14:04:15.153Z,41.30
2018-06-13T14:06:46.903Z,42.40
2018-06-13T14:09:16.049Z,43.30
2018-06-13T14:11:48.446Z,44.30
2018-06-13T14:14:19.338Z,44.90
2018-06-13T14:16:50.811Z,45.30
2018-06-13T14:19:21.784Z,44.60
2018-06-13T14:21:53.287Z,44.60
2018-06-13T14:24:23.865Z,44.90
2018-06-13T14:26:56.661Z,44.30
2018-06-13T14:29:25.981Z,43.30
2018-06-13T14:31:55.037Z,43.00
2018-06-13T14:34:24.057Z,42.70
2018-06-13T14:36:53.138Z,42.40
2018-06-13T14:39:22.472Z,42.50
2018-06-13T14:41:51.777Z,42.80
2018-06-13T14:44:21.072Z,42.70
2018-06-13T14:46:50.373Z,42.80
2018-06-13T14:49:19.661Z,43.30
2018-06-13T14:51:52.858Z,43.30
2018-06-13T14:54:22.362Z,43.70
2018-06-13T14:56:51.674Z,44.30
2018-06-13T14:59:21.069Z,44.10
2018-06-13T15:01:50.360Z,43.70
2018-06-13T15:04:25.659Z,43.40
2018-06-13T15:06:54.975Z,43.70
2018-06-13T15:09:24.260Z,43.40
2018-06-13T15:11:53.551Z,43.30
2018-06-13T15:14:22.825Z,44.10
2018-06-13T15:16:52.120Z,43.90
2018-06-13T15:19:22.035Z,43.70
2018-06-13T15:21:51.207Z,43.10
2018-06-13T15:24:21.505Z,42.70
2018-06-13T15:26:50.766Z,42.70
2018-06-13T15:29:19.854Z,42.20
2018-06-13T15:31:49.793Z,43.10
2018-06-13T15:34:18.880Z,43.00
2018-06-13T15:36:48.368Z,43.10
2018-06-13T15:39:18.069Z,43.40
2018-06-13T15:41:47.565Z,43.40
2018-06-13T15:44:16.897Z,43.30
2018-06-13T15:46:45.954Z,43.10
2018-06-13T15:49:15.516Z,43.40
2018-06-13T15:51:44.634Z,43.30
2018-06-13T15:54:14.237Z,43.00
2018-06-13T15:56:43.300Z,42.80
2018-06-13T15:59:13.001Z,43.10
2018-06-13T16:01:42.176Z,43.10
2018-06-13T16:04:11.468Z,43.10
2018-06-13T16:06:40.536Z,43.70
2018-06-13T16:09:10.929Z,44.30
2018-06-13T16:11:40.420Z,44.70
2018-06-13T16:14:09.766Z,44.70
2018-06-13T16:16:39.720Z,45.00
2018-06-13T16:19:08.995Z,44.60
2018-06-13T16:21:38.059Z,44.60
2018-06-13T16:24:07.249Z,44.70
2018-06-13T16:26:36.299Z,44.90
2018-06-13T16:29:05.445Z,44.40
2018-06-13T16:31:34.509Z,44.00
2018-06-13T16:34:03.586Z,43.40
2018-06-13T16:36:32.657Z,43.00
2018-06-13T16:39:01.801Z,42.80
2018-06-13T16:41:30.900Z,42.50
2018-06-13T16:44:00.282Z,42.50
2018-06-13T16:46:29.360Z,42.50
2018-06-13T16:48:58.649Z,42.50
2018-06-13T16:51:39.076Z,42.50
2018-06-13T16:54:11.895Z,42.80
2018-06-13T16:56:41.449Z,42.70
2018-06-13T16:59:10.518Z,42.50
2018-06-13T17:01:39.600Z,42.40
2018-06-13T17:04:08.981Z,42.40
2018-06-13T17:06:38.268Z,42.70
2018-06-13T17:09:07.919Z,43.40
2018-06-13T17:11:37.526Z,44.10
2018-06-13T17:14:06.567Z,44.40
2018-06-13T17:16:35.983Z,44.10
2018-06-13T17:19:05.292Z,43.70
2018-06-13T17:21:34.791Z,43.30
2018-06-13T17:24:04.112Z,43.00
2018-06-13T17:26:33.210Z,42.70
2018-06-13T17:29:02.294Z,42.50
2018-06-13T17:31:31.565Z,42.40
2018-06-13T17:34:00.662Z,42.40
2018-06-13T17:36:29.882Z,42.40
2018-06-13T17:38:59.673Z,42.40
2018-06-13T17:41:30.700Z,42.40
2018-06-13T17:44:01.318Z,42.10
2018-06-13T17:46:32.079Z,42.20
2018-06-13T17:49:02.927Z,43.10
2018-06-13T17:51:33.585Z,43.10
2018-06-13T17:54:04.763Z,42.70
2018-06-13T17:56:35.707Z,42.50
2018-06-13T17:59:06.709Z,42.40
2018-06-13T18:01:38.393Z,42.10
2018-06-13T18:04:08.780Z,41.90
2018-06-13T18:06:37.968Z,42.10
2018-06-13T18:09:08.189Z,41.60
2018-06-13T18:11:40.933Z,41.90
2018-06-13T18:14:12.186Z,41.80
2018-06-13T18:16:44.231Z,41.80
2018-06-13T18:19:14.530Z,41.90
2018-06-13T18:21:45.547Z,42.20
2018-06-13T18:24:16.418Z,43.00
2018-06-13T18:26:50.027Z,43.00
2018-06-13T18:29:21.906Z,43.10
2018-06-13T18:31:51.867Z,42.80
2018-06-13T18:34:20.953Z,43.00
2018-06-13T18:36:50.045Z,43.10
2018-06-13T18:39:19.169Z,43.60
2018-06-13T18:41:48.334Z,43.60
2018-06-13T18:44:22.469Z,43.40
2018-06-13T18:46:52.033Z,43.30
2018-06-13T18:49:21.150Z,43.60
2018-06-13T18:51:50.265Z,43.70
2018-06-13T18:54:19.413Z,43.90
2018-06-13T18:56:49.901Z,43.60
2018-06-13T18:59:18.982Z,43.60
2018-06-13T19:01:48.150Z,43.70
2018-06-13T19:04:17.198Z,43.40
2018-06-13T19:06:46.706Z,45.90
2018-06-13T19:09:15.776Z,45.30
2018-06-13T19:11:45.073Z,45.60
2018-06-13T19:14:16.613Z,44.90
2018-06-13T19:16:47.656Z,45.20
2018-06-13T19:19:19.972Z,43.40
2018-06-13T19:21:51.398Z,46.80
2018-06-13T19:24:22.548Z,45.50
2018-06-13T19:26:53.736Z,46.20
2018-06-13T19:29:25.533Z,46.10
2018-06-13T19:31:58.009Z,45.90
2018-06-13T19:34:30.100Z,44.10
2018-06-13T19:37:01.997Z,44.00
2018-06-13T19:39:33.549Z,44.60
2018-06-13T19:42:04.051Z,44.60
2018-06-13T19:44:33.576Z,45.00
2018-06-13T19:47:09.928Z,44.70
2018-06-13T19:49:42.816Z,43.90
2018-06-13T19:52:13.668Z,44.10
2018-06-13T19:54:49.648Z,44.30
2018-06-13T19:57:21.444Z,44.40
2018-06-13T19:59:51.908Z,43.60
2018-06-13T20:02:23.308Z,44.60
2018-06-13T20:04:58.973Z,43.70
2018-06-13T20:07:29.779Z,44.60
2018-06-13T20:10:00.605Z,43.00
2018-06-13T20:12:42.357Z,43.90
2018-06-13T20:15:19.088Z,43.10
2018-06-13T20:17:54.712Z,43.60
2018-06-13T20:20:25.693Z,43.40
2018-06-13T20:22:58.085Z,43.60
2018-06-13T20:25:33.895Z,44.60
2018-06-13T20:28:10.042Z,44.40
2018-06-13T20:31:43.751Z,44.70
2018-06-13T20:34:13.827Z,44.40
2018-06-13T20:36:45.271Z,45.20
2018-06-13T20:39:14.574Z,45.30
2018-06-13T20:41:44.577Z,46.20
2018-06-13T20:44:13.692Z,46.40
2018-06-13T20:46:42.854Z,46.10
2018-06-13T20:49:12.441Z,46.20
2018-06-13T20:51:41.559Z,47.00
2018-06-13T20:54:10.736Z,48.90
2018-06-13T20:56:39.954Z,48.10
2018-06-13T20:59:09.105Z,48.10
2018-06-13T21:01:38.442Z,46.80
2018-06-13T21:04:07.619Z,45.50
2018-06-13T21:06:37.029Z,46.20
2018-06-13T21:09:07.929Z,45.90
2018-06-13T21:11:37.295Z,45.50
2018-06-13T21:14:06.609Z,45.60
2018-06-13T21:16:35.750Z,46.50
2018-06-13T21:19:05.023Z,44.30
2018-06-13T21:21:34.120Z,44.70
2018-06-13T21:24:03.729Z,44.70
2018-06-13T21:26:32.811Z,45.00
2018-06-13T21:29:02.444Z,45.00
2018-06-13T21:31:31.536Z,45.20
2018-06-13T21:34:00.918Z,47.40
2018-06-13T21:36:30.124Z,47.30
2018-06-13T21:38:59.361Z,44.90
2018-06-13T21:41:28.402Z,47.30
2018-06-13T21:43:57.573Z,46.40
2018-06-13T21:46:27.294Z,45.30
2018-06-13T21:48:56.578Z,44.40
2018-06-13T21:51:25.824Z,44.70
2018-06-13T21:53:55.027Z,47.30
2018-06-13T21:56:26.553Z,44.30
2018-06-13T21:58:56.277Z,44.70
2018-06-13T22:01:26.545Z,47.00
2018-06-13T22:03:56.993Z,44.10
2018-06-13T22:06:26.666Z,45.60
2018-06-13T22:08:56.093Z,47.40
2018-06-13T22:11:25.308Z,44.60
2018-06-13T22:13:54.721Z,45.60
2018-06-13T22:16:23.882Z,44.30
2018-06-13T22:18:53.082Z,46.50
2018-06-13T22:21:22.137Z,43.40
2018-06-13T22:23:51.332Z,47.40
2018-06-13T22:26:20.501Z,45.60
2018-06-13T22:28:49.705Z,47.40
2018-06-13T22:31:18.893Z,44.10
2018-06-13T22:33:48.084Z,45.80
2018-06-13T22:36:17.182Z,44.00
2018-06-13T22:38:46.294Z,44.90
2018-06-13T22:41:15.360Z,48.70
2018-06-13T22:43:44.729Z,48.90
2018-06-13T22:46:13.959Z,45.20
2018-06-13T22:48:43.405Z,44.40
2018-06-13T22:51:12.740Z,45.00
2018-06-13T22:53:41.917Z,45.60
2018-06-13T22:56:11.293Z,47.80
2018-06-13T22:58:40.576Z,45.00
2018-06-13T23:01:11.753Z,46.20
2018-06-13T23:03:40.939Z,46.80
2018-06-13T23:06:10.975Z,47.10
2018-06-13T23:08:40.276Z,47.50
2018-06-13T23:11:09.326Z,47.50
2018-06-13T23:13:38.515Z,46.40
2018-06-13T23:16:07.690Z,46.10
2018-06-13T23:18:36.760Z,47.30
2018-06-13T23:21:05.820Z,46.10
2018-06-13T23:23:35.002Z,47.30
2018-06-13T23:26:04.183Z,46.80
2018-06-13T23:28:33.257Z,48.60
2018-06-13T23:31:02.318Z,48.90
2018-06-13T23:33:31.350Z,47.80
2018-06-13T23:36:00.379Z,47.50
2018-06-13T23:38:29.490Z,46.50
2018-06-13T23:40:58.782Z,46.70
2018-06-13T23:43:27.861Z,44.70
2018-06-13T23:45:56.924Z,45.80
2018-06-13T23:48:26.037Z,46.70
2018-06-13T23:50:55.171Z,46.80
2018-06-13T23:53:24.350Z,45.00
2018-06-13T23:55:53.517Z,44.40
2018-06-13T23:58:22.721Z,44.40
